5TX6 weather

Hilliard Landing Area Airport
Lewisville, Texas, United States

Public forecast

Using degrees Fahrenheit for public forecast. Weather courtesy of forecast.io.

Closest aviation weather report (METAR) to Hilliard Landing Area Airport

Closest report is Dallas Fort Worth International Airport, 7.4 nm (13.7 km) SSE. Retrieved 2020/04/08 08:53 UTC (11 minutes ago):

KDFW 080853Z 20009KT 10SM BKN190 OVC300 23/21 A2979 RMK AO2 SLP079 T02280206 57012

Closest aviation forecast (TAF) to Hilliard Landing Area Airport

Closest forecast is Dallas Fort Worth International Airport, 7.4 nm (13.7 km) SSE. Retrieved 2020/04/08 06:42 UTC (2 hours ago):

TAF KDFW 080539Z 0806/0912 20008KT P6SM BKN250 FM081900 25011KT P6SM BKN250 FM090300 20005KT P6SM SCT250 FM091000 03013KT P6SM SCT250